Time;durP1;ratioP1;P1;durP2;ratioP2;P2;SDS_P1;SDS_P2;PMS_P1;PMS_P2;Temp;Humidity;BMP_temperature;BMP_pressure;BME280_temperature;BME280_humidity;BME280_pressure;Samples;Min_cycle;Max_cycle;Signal;HPM_P1;HPM_P2
2024/02/20 00:01:48;;;;;;;;;;;7.60;38.20;;;;;;5083044;28;19912;-83
2024/02/20 00:04:17;;;;;;;;;;;7.60;37.90;;;;;;5089283;28;20003;-85
2024/02/20 00:06:43;;;;;;;;;;;7.60;35.00;;;;;;5083590;28;19918;-84
2024/02/20 00:09:08;;;;;;;;;;;7.60;31.10;;;;;;5090476;28;20696;-84
2024/02/20 00:11:34;;;;;;;;;;;7.60;29.60;;;;;;5086488;28;19912;-84
2024/02/20 00:13:59;;;;;;;;;;;7.50;29.60;;;;;;5082767;28;19918;-84
2024/02/20 00:16:25;;;;;;;;;;;7.50;28.90;;;;;;5089448;28;19913;-84
2024/02/20 00:18:51;;;;;;;;;;;7.50;30.90;;;;;;5089888;28;19924;-84
2024/02/20 00:21:16;;;;;;;;;;;7.50;34.50;;;;;;5077192;28;19913;-84
2024/02/20 00:23:43;;;;;;;;;;;7.50;36.40;;;;;;5074538;28;19916;-83
2024/02/20 00:26:09;;;;;;;;;;;7.40;38.40;;;;;;5080027;28;19913;-85
2024/02/20 00:28:40;;;;;;;;;;;7.40;41.60;;;;;;5094334;28;19939;-84
2024/02/20 00:31:06;;;;;;;;;;;7.40;43.20;;;;;;5089950;28;19974;-85
2024/02/20 00:33:31;;;;;;;;;;;7.40;45.00;;;;;;5086089;28;19920;-85
2024/02/20 00:35:57;;;;;;;;;;;7.40;46.70;;;;;;5094877;28;19912;-85
2024/02/20 00:38:22;;;;;;;;;;;7.40;49.60;;;;;;5093300;28;20407;-84
2024/02/20 00:40:48;;;;;;;;;;;7.30;52.80;;;;;;5092030;28;19935;-84
2024/02/20 00:43:13;;;;;;;;;;;7.30;55.90;;;;;;5088522;28;19968;-86
2024/02/20 00:45:39;;;;;;;;;;;7.30;56.50;;;;;;5099490;28;19916;-84
2024/02/20 00:48:04;;;;;;;;;;;7.30;58.10;;;;;;5087788;28;19908;-84
2024/02/20 00:50:31;;;;;;;;;;;7.30;59.90;;;;;;5095589;28;19939;-85
2024/02/20 00:52:57;;;;;;;;;;;7.30;63.70;;;;;;5101170;28;19920;-85
2024/02/20 00:55:22;;;;;;;;;;;7.30;65.90;;;;;;5091869;28;19966;-84
2024/02/20 00:57:48;;;;;;;;;;;7.30;68.90;;;;;;5099063;28;19912;-84
2024/02/20 01:00:13;;;;;;;;;;;7.30;70.80;;;;;;5095402;28;20140;-86
2024/02/20 01:02:40;;;;;;;;;;;7.30;73.70;;;;;;5094295;28;19913;-84
2024/02/20 01:05:06;;;;;;;;;;;7.30;77.50;;;;;;5091594;28;19919;-84
2024/02/20 01:07:32;;;;;;;;;;;7.30;80.80;;;;;;5096189;28;20343;-84
2024/02/20 01:09:57;;;;;;;;;;;7.30;83.10;;;;;;5090992;28;19912;-84
2024/02/20 01:12:23;;;;;;;;;;;7.30;86.40;;;;;;5082651;28;20365;-84
2024/02/20 01:14:48;;;;;;;;;;;7.30;89.50;;;;;;5086978;28;19912;-83
2024/02/20 01:17:14;;;;;;;;;;;7.30;91.60;;;;;;5072665;28;19956;-83
2024/02/20 01:19:39;;;;;;;;;;;7.40;92.80;;;;;;5080863;28;19919;-84
2024/02/20 01:22:06;;;;;;;;;;;7.40;93.30;;;;;;5098073;28;19915;-84
2024/02/20 01:24:31;;;;;;;;;;;7.40;93.10;;;;;;5091232;28;20001;-86
2024/02/20 01:26:57;;;;;;;;;;;7.30;92.50;;;;;;5093416;28;19916;-85
2024/02/20 01:29:22;;;;;;;;;;;7.50;92.20;;;;;;5085285;28;19965;-84
2024/02/20 01:31:53;;;;;;;;;;;7.40;92.00;;;;;;5080495;28;19947;-84
2024/02/20 01:34:18;;;;;;;;;;;7.50;91.90;;;;;;5083184;28;19965;-84
2024/02/20 01:36:44;;;;;;;;;;;7.50;91.60;;;;;;5081423;28;19916;-84
2024/02/20 01:39:10;;;;;;;;;;;7.40;90.60;;;;;;5073640;28;20364;-84
2024/02/20 01:41:35;;;;;;;;;;;7.50;90.10;;;;;;5078669;28;20378;-84
2024/02/20 01:44:00;;;;;;;;;;;7.50;87.70;;;;;;5088133;28;19946;-84
2024/02/20 01:46:26;;;;;;;;;;;7.50;86.40;;;;;;5090073;28;19916;-84
2024/02/20 01:48:52;;;;;;;;;;;7.50;85.50;;;;;;5087445;28;19940;-84
2024/02/20 01:51:17;;;;;;;;;;;7.50;83.90;;;;;;5079356;28;20393;-84
2024/02/20 01:53:47;;;;;;;;;;;7.50;82.00;;;;;;5080444;28;19912;-85
2024/02/20 01:56:13;;;;;;;;;;;7.50;82.00;;;;;;5085133;28;20698;-83
2024/02/20 01:58:39;;;;;;;;;;;7.50;83.60;;;;;;5101476;28;19912;-85
2024/02/20 02:01:05;;;;;;;;;;;7.80;85.00;;;;;;5096181;28;19923;-84
2024/02/20 02:03:30;;;;;;;;;;;7.50;84.00;;;;;;5084949;28;19923;-85
2024/02/20 02:05:56;;;;;;;;;;;7.40;82.40;;;;;;5088888;28;19943;-85
2024/02/20 02:08:21;;;;;;;;;;;7.50;81.90;;;;;;5093564;28;20020;-84
2024/02/20 02:10:47;;;;;;;;;;;7.40;82.20;;;;;;5094950;28;20373;-84
2024/02/20 02:13:12;;;;;;;;;;;7.40;83.40;;;;;;5082366;28;19969;-86
2024/02/20 02:15:37;;;;;;;;;;;7.40;83.10;;;;;;5085372;28;19913;-83
2024/02/20 02:18:03;;;;;;;;;;;7.30;83.90;;;;;;5092584;28;19912;-84
2024/02/20 02:20:28;;;;;;;;;;;7.40;85.00;;;;;;5095037;28;19917;-84
2024/02/20 02:22:54;;;;;;;;;;;7.30;86.00;;;;;;5078763;28;19920;-84
2024/02/20 02:25:20;;;;;;;;;;;7.40;84.50;;;;;;5078804;28;20378;-84
2024/02/20 02:27:45;;;;;;;;;;;7.40;82.30;;;;;;5082162;28;19913;-84
2024/02/20 02:30:11;;;;;;;;;;;7.40;84.10;;;;;;5091768;28;19941;-84
2024/02/20 02:32:37;;;;;;;;;;;7.40;84.80;;;;;;5081646;28;19916;-84
2024/02/20 02:35:02;;;;;;;;;;;7.30;85.10;;;;;;5078018;28;20393;-85
2024/02/20 02:37:28;;;;;;;;;;;7.30;85.40;;;;;;5085046;28;19997;-85
2024/02/20 02:39:53;;;;;;;;;;;7.30;85.40;;;;;;5089020;28;19945;-84
2024/02/20 02:42:19;;;;;;;;;;;7.20;85.10;;;;;;5089747;28;19951;-84
2024/02/20 02:44:46;;;;;;;;;;;7.30;86.30;;;;;;5084146;28;19912;-83
2024/02/20 02:47:12;;;;;;;;;;;7.30;87.20;;;;;;5083346;28;19951;-86
2024/02/20 02:49:37;;;;;;;;;;;7.30;88.00;;;;;;5097576;28;19915;-84
2024/02/20 02:52:04;;;;;;;;;;;7.30;89.00;;;;;;5095033;28;19912;-87
2024/02/20 02:54:29;;;;;;;;;;;7.30;90.00;;;;;;5091800;28;19912;-84
2024/02/20 02:56:55;;;;;;;;;;;7.20;90.70;;;;;;5090313;28;19919;-85
2024/02/20 02:59:20;;;;;;;;;;;7.20;91.50;;;;;;5086022;28;20559;-85
2024/02/20 03:01:46;;;;;;;;;;;7.20;91.50;;;;;;5090589;28;19939;-84
2024/02/20 03:04:11;;;;;;;;;;;7.30;92.00;;;;;;5098452;28;19973;-85
2024/02/20 03:06:37;;;;;;;;;;;7.20;91.90;;;;;;5095776;28;19918;-85
2024/02/20 03:09:05;;;;;;;;;;;7.20;91.80;;;;;;5087196;28;19928;-84
2024/02/20 03:11:31;;;;;;;;;;;7.20;92.00;;;;;;5091882;28;20510;-84
2024/02/20 03:13:56;;;;;;;;;;;7.10;92.70;;;;;;5094078;28;19913;-84
2024/02/20 03:16:21;;;;;;;;;;;7.20;93.60;;;;;;5093858;28;19920;-85
2024/02/20 03:18:48;;;;;;;;;;;7.20;94.80;;;;;;5101435;28;19973;-83
2024/02/20 03:21:13;;;;;;;;;;;7.20;95.90;;;;;;5087276;28;19918;-84
2024/02/20 03:23:41;;;;;;;;;;;7.20;96.30;;;;;;5088407;28;20597;-83
2024/02/20 03:26:06;;;;;;;;;;;7.10;96.30;;;;;;5088366;28;19920;-83
2024/02/20 03:28:32;;;;;;;;;;;7.10;96.50;;;;;;5085097;28;19919;-85
2024/02/20 03:30:58;;;;;;;;;;;7.10;96.70;;;;;;5094777;28;20010;-84
2024/02/20 03:33:23;;;;;;;;;;;7.30;97.20;;;;;;5094291;28;19916;-86
2024/02/20 03:35:49;;;;;;;;;;;7.20;97.20;;;;;;5093714;28;19912;-85
2024/02/20 03:38:15;;;;;;;;;;;7.20;97.40;;;;;;5102300;28;19923;-85
2024/02/20 03:40:42;;;;;;;;;;;7.10;97.10;;;;;;5087624;28;19927;-85
2024/02/20 03:43:08;;;;;;;;;;;7.10;97.00;;;;;;5088582;28;19912;-84
2024/02/20 03:45:34;;;;;;;;;;;7.10;96.90;;;;;;5090969;28;19912;-84
2024/02/20 03:47:59;;;;;;;;;;;7.10;97.10;;;;;;5088219;28;19935;-85
2024/02/20 03:50:25;;;;;;;;;;;7.10;97.10;;;;;;5092270;28;20381;-84
2024/02/20 03:52:50;;;;;;;;;;;7.20;97.50;;;;;;5087049;28;19913;-84
2024/02/20 03:55:16;;;;;;;;;;;7.10;98.30;;;;;;5084130;28;19912;-84
2024/02/20 03:57:42;;;;;;;;;;;7.10;97.90;;;;;;5088175;28;19920;-85
2024/02/20 04:00:14;;;;;;;;;;;7.20;98.00;;;;;;5099146;28;19916;-84
2024/02/20 04:02:43;;;;;;;;;;;7.20;97.90;;;;;;5089719;28;19912;-84
2024/02/20 04:05:11;;;;;;;;;;;7.20;98.00;;;;;;5093277;28;19958;-84
2024/02/20 04:07:38;;;;;;;;;;;7.20;97.70;;;;;;5088438;28;20384;-83
2024/02/20 04:10:03;;;;;;;;;;;7.30;96.40;;;;;;5094980;28;19918;-83
2024/02/20 04:12:29;;;;;;;;;;;7.20;94.80;;;;;;5094073;28;19979;-83
2024/02/20 04:14:56;;;;;;;;;;;7.20;94.10;;;;;;5086542;28;19913;-84
2024/02/20 04:17:22;;;;;;;;;;;7.10;93.80;;;;;;5079577;28;20386;-83
2024/02/20 04:19:47;;;;;;;;;;;7.20;92.90;;;;;;5081584;28;19917;-83
2024/02/20 04:22:12;;;;;;;;;;;7.10;91.50;;;;;;5080280;28;19912;-84
2024/02/20 04:24:39;;;;;;;;;;;7.10;89.40;;;;;;5075283;28;20003;-83
2024/02/20 04:27:04;;;;;;;;;;;7.10;86.30;;;;;;5078254;28;20390;-83
2024/02/20 04:29:29;;;;;;;;;;;7.10;84.80;;;;;;5076983;28;19912;-84
2024/02/20 04:31:55;;;;;;;;;;;7.00;84.60;;;;;;5075540;28;19916;-84
2024/02/20 04:34:21;;;;;;;;;;;7.10;86.10;;;;;;5072633;28;20330;-84
2024/02/20 04:36:46;;;;;;;;;;;7.00;85.50;;;;;;5073175;28;20369;-83
2024/02/20 04:39:12;;;;;;;;;;;6.90;87.30;;;;;;5078816;28;19917;-84
2024/02/20 04:41:37;;;;;;;;;;;6.90;88.60;;;;;;5072444;28;19970;-84
2024/02/20 04:44:03;;;;;;;;;;;6.90;89.60;;;;;;5075960;28;20019;-83
2024/02/20 04:46:29;;;;;;;;;;;6.90;90.90;;;;;;5072357;28;19919;-83
2024/02/20 04:48:54;;;;;;;;;;;6.90;91.10;;;;;;5079081;28;19913;-83
2024/02/20 04:51:20;;;;;;;;;;;6.90;91.40;;;;;;5076028;28;19947;-85
2024/02/20 04:53:45;;;;;;;;;;;6.80;92.10;;;;;;5089228;28;19946;-84
2024/02/20 04:56:11;;;;;;;;;;;6.80;91.70;;;;;;5087987;28;19930;-84
2024/02/20 04:58:37;;;;;;;;;;;6.80;92.20;;;;;;5096357;28;19912;-85
2024/02/20 05:01:02;;;;;;;;;;;6.80;92.20;;;;;;5088816;28;19916;-85
2024/02/20 05:03:28;;;;;;;;;;;6.80;92.40;;;;;;5093001;28;20580;-86
2024/02/20 05:05:54;;;;;;;;;;;6.80;92.70;;;;;;5097109;28;19912;-85
2024/02/20 05:08:19;;;;;;;;;;;6.80;93.00;;;;;;5098978;28;19912;-85
2024/02/20 05:10:45;;;;;;;;;;;6.80;93.70;;;;;;5095812;28;19913;-84
2024/02/20 05:13:10;;;;;;;;;;;6.80;94.20;;;;;;5087813;28;19916;-86
2024/02/20 05:15:36;;;;;;;;;;;6.70;93.70;;;;;;5092152;28;19981;-85
2024/02/20 05:18:01;;;;;;;;;;;6.70;93.70;;;;;;5085425;28;19947;-86
2024/02/20 05:20:26;;;;;;;;;;;6.70;93.60;;;;;;5097406;28;20020;-85
2024/02/20 05:22:52;;;;;;;;;;;6.70;94.40;;;;;;5087629;28;19912;-85
2024/02/20 05:25:17;;;;;;;;;;;6.70;94.80;;;;;;5090286;28;19913;-86
2024/02/20 05:27:43;;;;;;;;;;;6.70;94.60;;;;;;5091826;28;19913;-85
2024/02/20 05:30:09;;;;;;;;;;;6.70;94.70;;;;;;5088395;28;19920;-85
2024/02/20 05:32:34;;;;;;;;;;;6.70;94.50;;;;;;5078007;28;19913;-85
2024/02/20 05:35:00;;;;;;;;;;;6.80;94.40;;;;;;5083726;28;19939;-84
2024/02/20 05:37:25;;;;;;;;;;;6.70;94.20;;;;;;5084030;28;20401;-83
2024/02/20 05:39:50;;;;;;;;;;;6.70;93.50;;;;;;5089295;28;19932;-84
2024/02/20 05:42:16;;;;;;;;;;;6.70;93.50;;;;;;5078524;28;19919;-83
2024/02/20 05:44:45;;;;;;;;;;;6.70;93.10;;;;;;5083530;28;19988;-85
2024/02/20 05:47:10;;;;;;;;;;;6.60;92.50;;;;;;5077781;28;19920;-84
2024/02/20 05:49:36;;;;;;;;;;;6.60;92.40;;;;;;5085940;28;19916;-84
2024/02/20 05:52:01;;;;;;;;;;;6.60;92.60;;;;;;5073290;28;19912;-81
2024/02/20 05:54:27;;;;;;;;;;;6.60;92.50;;;;;;5071720;28;19913;-83
2024/02/20 05:56:52;;;;;;;;;;;6.60;92.60;;;;;;5073590;28;19919;-83
2024/02/20 05:59:18;;;;;;;;;;;6.60;92.80;;;;;;5073207;28;19947;-84
2024/02/20 06:01:43;;;;;;;;;;;6.60;93.00;;;;;;5071718;28;20325;-83
2024/02/20 06:04:08;;;;;;;;;;;6.60;93.50;;;;;;5071809;28;19916;-82
2024/02/20 06:06:34;;;;;;;;;;;6.60;93.70;;;;;;5075012;28;19919;-83
2024/02/20 06:09:00;;;;;;;;;;;6.60;94.30;;;;;;5071778;28;20388;-84
2024/02/20 06:11:27;;;;;;;;;;;6.60;94.40;;;;;;5071370;28;19969;-84
2024/02/20 06:13:53;;;;;;;;;;;6.60;94.50;;;;;;5075780;28;19912;-83
2024/02/20 06:16:18;;;;;;;;;;;6.60;95.00;;;;;;5082001;28;20405;-83
2024/02/20 06:18:44;;;;;;;;;;;6.60;95.20;;;;;;5080026;28;20025;-83
2024/02/20 06:21:09;;;;;;;;;;;6.60;95.50;;;;;;5088670;28;19936;-84
2024/02/20 06:23:35;;;;;;;;;;;6.60;96.30;;;;;;5085941;28;19954;-84
2024/02/20 06:26:01;;;;;;;;;;;6.60;96.70;;;;;;5095941;28;19912;-84
2024/02/20 06:28:26;;;;;;;;;;;6.50;97.60;;;;;;5084833;28;19915;-83
2024/02/20 06:30:52;;;;;;;;;;;6.60;98.70;;;;;;5085082;28;19915;-83
2024/02/20 06:33:17;;;;;;;;;;;6.60;99.90;;;;;;5096496;28;20313;-84
2024/02/20 06:35:43;;;;;;;;;;;6.60;99.50;;;;;;5105205;28;19914;-84
2024/02/20 06:38:09;;;;;;;;;;;6.60;99.70;;;;;;5092746;28;19960;-83
2024/02/20 06:40:34;;;;;;;;;;;6.60;99.90;;;;;;5087876;28;19924;-84
2024/02/20 06:43:00;;;;;;;;;;;6.60;99.90;;;;;;5103951;28;20001;-84
2024/02/20 06:45:27;;;;;;;;;;;6.60;99.90;;;;;;5090311;28;19909;-84
2024/02/20 06:47:53;;;;;;;;;;;6.70;99.90;;;;;;5090602;28;20391;-84
2024/02/20 06:50:19;;;;;;;;;;;6.70;99.90;;;;;;5093137;28;19921;-84
2024/02/20 06:52:44;;;;;;;;;;;6.80;99.90;;;;;;5082716;28;19938;-85
2024/02/20 06:55:10;;;;;;;;;;;6.80;99.90;;;;;;5083179;28;19916;-84
2024/02/20 06:57:37;;;;;;;;;;;6.80;99.90;;;;;;5088875;28;20389;-83
2024/02/20 07:00:03;;;;;;;;;;;6.80;99.90;;;;;;5089767;28;20037;-84
2024/02/20 07:02:29;;;;;;;;;;;6.90;99.90;;;;;;5092343;28;19984;-85
2024/02/20 07:04:54;;;;;;;;;;;7.00;99.90;;;;;;5090824;28;19908;-84
2024/02/20 07:07:20;;;;;;;;;;;7.10;99.90;;;;;;5086343;28;19916;-83
2024/02/20 07:09:46;;;;;;;;;;;7.20;99.90;;;;;;5085835;28;19954;-84
2024/02/20 07:12:11;;;;;;;;;;;7.30;97.70;;;;;;5092236;28;19920;-84
2024/02/20 07:14:37;;;;;;;;;;;7.40;95.00;;;;;;5086181;28;19943;-84
2024/02/20 07:17:02;;;;;;;;;;;7.40;91.30;;;;;;5091378;28;19913;-84
2024/02/20 07:19:28;;;;;;;;;;;7.50;86.40;;;;;;5093234;28;19946;-85
2024/02/20 07:21:53;;;;;;;;;;;7.50;78.70;;;;;;5091953;28;19913;-84
2024/02/20 07:24:19;;;;;;;;;;;7.60;73.50;;;;;;5091864;28;19908;-83
2024/02/20 07:26:46;;;;;;;;;;;7.60;68.30;;;;;;5089503;28;19913;-84
2024/02/20 07:29:11;;;;;;;;;;;7.70;61.20;;;;;;5087961;28;19919;-84
2024/02/20 07:31:37;;;;;;;;;;;7.70;55.30;;;;;;5089647;28;19912;-84
2024/02/20 07:34:02;;;;;;;;;;;7.80;49.70;;;;;;5083710;28;19908;-83
2024/02/20 07:36:29;;;;;;;;;;;7.80;46.80;;;;;;5079942;28;19975;-83
2024/02/20 07:38:55;;;;;;;;;;;7.90;45.80;;;;;;5091693;28;19916;-84
2024/02/20 07:41:20;;;;;;;;;;;8.00;39.60;;;;;;5079372;28;20313;-84
2024/02/20 07:43:46;;;;;;;;;;;8.10;32.50;;;;;;5092988;28;19918;-84
2024/02/20 07:46:15;;;;;;;;;;;8.20;25.80;;;;;;5091480;28;19938;-84
2024/02/20 07:48:42;;;;;;;;;;;8.20;21.70;;;;;;5085194;28;19919;-84
2024/02/20 07:51:09;;;;;;;;;;;8.30;17.40;;;;;;5083167;28;19913;-84
2024/02/20 07:53:35;;;;;;;;;;;8.40;11.00;;;;;;5091540;28;20436;-84
2024/02/20 07:56:02;;;;;;;;;;;8.50;1.00;;;;;;5082850;28;19916;-83
2024/02/20 07:58:28;;;;;;;;;;;8.70;1.00;;;;;;5083180;28;19957;-84
2024/02/20 08:00:54;;;;;;;;;;;8.90;1.00;;;;;;5084643;28;20011;-85
2024/02/20 08:03:23;;;;;;;;;;;9.00;1.00;;;;;;5080480;28;20339;-86
2024/02/20 08:05:49;;;;;;;;;;;9.10;1.00;;;;;;5098241;28;19944;-84
2024/02/20 08:08:14;;;;;;;;;;;9.40;1.00;;;;;;5098444;28;19919;-85
2024/02/20 08:10:40;;;;;;;;;;;9.60;1.00;;;;;;5089012;28;19916;-85
2024/02/20 08:13:06;;;;;;;;;;;9.70;1.00;;;;;;5091672;28;19912;-84
2024/02/20 08:15:31;;;;;;;;;;;9.80;1.00;;;;;;5098491;28;19919;-85
2024/02/20 08:17:57;;;;;;;;;;;10.00;1.00;;;;;;5088502;28;19912;-85
2024/02/20 08:20:22;;;;;;;;;;;10.20;1.00;;;;;;5092737;28;19970;-85
2024/02/20 08:22:48;;;;;;;;;;;10.50;1.00;;;;;;5100634;28;20394;-84
2024/02/20 08:25:13;;;;;;;;;;;10.70;99.90;;;;;;5097128;28;19912;-84
2024/02/20 08:27:39;;;;;;;;;;;10.70;99.90;;;;;;5098699;28;19908;-84
2024/02/20 08:30:06;;;;;;;;;;;11.20;99.90;;;;;;5085333;28;20010;-84
2024/02/20 08:32:32;;;;;;;;;;;11.80;1.00;;;;;;5086531;28;19913;-84
2024/02/20 08:34:57;;;;;;;;;;;12.10;1.00;;;;;;5066632;28;19928;-85
2024/02/20 08:37:23;;;;;;;;;;;12.40;99.90;;;;;;5078892;28;19912;-84
2024/02/20 08:39:50;;;;;;;;;;;12.60;34.10;;;;;;5083296;28;19912;-83
2024/02/20 08:42:16;;;;;;;;;;;13.00;1.00;;;;;;5078371;28;19910;-85
2024/02/20 08:44:41;;;;;;;;;;;13.50;99.90;;;;;;5080154;28;19932;-84
2024/02/20 08:47:07;;;;;;;;;;;14.10;99.90;;;;;;5087122;28;19908;-85
2024/02/20 08:49:32;;;;;;;;;;;14.50;1.00;;;;;;5083574;28;19920;-84
2024/02/20 08:51:58;;;;;;;;;;;14.70;99.90;;;;;;5075060;28;19913;-84
2024/02/20 08:54:23;;;;;;;;;;;14.60;99.90;;;;;;5084538;28;19915;-84
2024/02/20 08:56:48;;;;;;;;;;;14.20;92.70;;;;;;5083301;28;19917;-84
2024/02/20 08:59:14;;;;;;;;;;;13.70;99.90;;;;;;5086203;28;19923;-84
2024/02/20 09:01:40;;;;;;;;;;;13.30;99.90;;;;;;5076652;28;19920;-83
2024/02/20 09:04:05;;;;;;;;;;;12.90;1.00;;;;;;5081524;28;19917;-85
2024/02/20 09:06:30;;;;;;;;;;;12.70;99.90;;;;;;5082024;28;19912;-85
2024/02/20 09:08:56;;;;;;;;;;;12.50;1.00;;;;;;5074604;28;20278;-84
2024/02/20 09:11:21;;;;;;;;;;;12.20;1.00;;;;;;5089500;28;19943;-83
2024/02/20 09:13:47;;;;;;;;;;;12.00;99.90;;;;;;5076923;28;19912;-85
2024/02/20 09:16:12;;;;;;;;;;;11.80;1.00;;;;;;5080586;28;19918;-83
2024/02/20 09:18:38;;;;;;;;;;;11.50;1.00;;;;;;5086843;28;19963;-83
2024/02/20 09:21:04;;;;;;;;;;;11.40;1.00;;;;;;5077331;28;19965;-85
2024/02/20 09:23:32;;;;;;;;;;;11.30;1.00;;;;;;5084364;28;19908;-84
2024/02/20 09:25:57;;;;;;;;;;;11.30;99.90;;;;;;5086265;28;19912;-84
2024/02/20 09:28:23;;;;;;;;;;;11.30;99.90;;;;;;5080055;28;20013;-84
2024/02/20 09:30:49;;;;;;;;;;;11.40;1.00;;;;;;5093181;28;19919;-84
2024/02/20 09:33:17;;;;;;;;;;;11.40;1.00;;;;;;5083679;28;19908;-84
2024/02/20 09:35:43;;;;;;;;;;;11.60;99.90;;;;;;5082654;28;19916;-85
2024/02/20 09:38:10;;;;;;;;;;;11.60;1.00;;;;;;5075846;28;19924;-84
2024/02/20 09:40:35;;;;;;;;;;;11.70;64.20;;;;;;5089760;28;19927;-84
2024/02/20 09:43:01;;;;;;;;;;;11.80;99.90;;;;;;5089033;28;19913;-85
2024/02/20 09:45:28;;;;;;;;;;;11.80;1.00;;;;;;5082254;28;19924;-85
2024/02/20 09:47:54;;;;;;;;;;;11.90;1.00;;;;;;5085066;28;19912;-84
2024/02/20 09:50:20;;;;;;;;;;;11.80;99.90;;;;;;5089748;28;19916;-85
2024/02/20 09:52:53;;;;;;;;;;;11.90;99.90;;;;;;5087585;28;20352;-84
2024/02/20 09:55:19;;;;;;;;;;;12.10;1.00;;;;;;5087950;28;19909;-85
2024/02/20 09:57:45;;;;;;;;;;;12.20;62.10;;;;;;5075663;28;19919;-84
2024/02/20 10:00:11;;;;;;;;;;;12.30;99.90;;;;;;5084255;28;19928;-85
2024/02/20 10:02:37;;;;;;;;;;;12.30;99.90;;;;;;5080814;28;19915;-85
2024/02/20 10:05:03;;;;;;;;;;;12.20;99.90;;;;;;5081788;28;19909;-84
2024/02/20 10:07:29;;;;;;;;;;;12.20;99.90;;;;;;5090210;28;19923;-84
2024/02/20 10:09:54;;;;;;;;;;;12.20;99.90;;;;;;5076663;28;19999;-84
2024/02/20 10:12:21;;;;;;;;;;;12.10;99.90;;;;;;5076212;28;19931;-84
2024/02/20 10:14:46;;;;;;;;;;;12.10;99.90;;;;;;5092260;28;19908;-85
2024/02/20 10:17:13;;;;;;;;;;;12.00;99.90;;;;;;5089038;28;20404;-84
2024/02/20 10:19:39;;;;;;;;;;;12.00;1.00;;;;;;5091954;28;19965;-85
2024/02/20 10:22:04;;;;;;;;;;;12.00;1.00;;;;;;5084360;28;19916;-83
2024/02/20 10:24:30;;;;;;;;;;;12.00;26.90;;;;;;5080408;28;19920;-84
2024/02/20 10:26:55;;;;;;;;;;;12.00;20.50;;;;;;5071021;28;19908;-84
2024/02/20 10:29:21;;;;;;;;;;;12.00;99.90;;;;;;5078402;28;19915;-84
2024/02/20 10:31:46;;;;;;;;;;;12.00;99.90;;;;;;5080398;28;19914;-84
2024/02/20 10:34:18;;;;;;;;;;;12.10;1.00;;;;;;5077569;28;19912;-85
2024/02/20 10:36:43;;;;;;;;;;;12.20;99.90;;;;;;5082622;28;19912;-85
2024/02/20 10:39:12;;;;;;;;;;;12.30;99.90;;;;;;5079076;28;20449;-84
2024/02/20 10:41:37;;;;;;;;;;;12.40;99.90;;;;;;5075755;28;20386;-84
2024/02/20 10:44:03;;;;;;;;;;;12.60;1.00;;;;;;5071369;28;19916;-85
2024/02/20 10:46:32;;;;;;;;;;;12.70;1.00;;;;;;5073974;28;19913;-85
2024/02/20 10:48:59;;;;;;;;;;;13.00;99.90;;;;;;5083449;28;19920;-84
2024/02/20 10:51:26;;;;;;;;;;;13.20;1.00;;;;;;5080295;28;19963;-84
2024/02/20 10:53:52;;;;;;;;;;;13.40;1.00;;;;;;5069011;28;19915;-84
2024/02/20 10:56:19;;;;;;;;;;;13.70;99.90;;;;;;5087818;28;19919;-85
2024/02/20 10:58:45;;;;;;;;;;;13.90;99.90;;;;;;5093085;28;20358;-86
2024/02/20 11:01:12;;;;;;;;;;;14.00;99.90;;;;;;5082839;28;19920;-84
2024/02/20 11:03:38;;;;;;;;;;;14.20;99.90;;;;;;5088203;28;19919;-84
2024/02/20 11:06:04;;;;;;;;;;;14.30;1.00;;;;;;5088603;28;19985;-85
2024/02/20 11:08:31;;;;;;;;;;;14.50;1.00;;;;;;5073500;28;19999;-85
2024/02/20 11:11:07;;;;;;;;;;;14.80;1.00;;;;;;5074957;28;19909;-84
2024/02/20 11:13:33;;;;;;;;;;;14.80;1.00;;;;;;5083982;28;20021;-84
2024/02/20 11:16:07;;;;;;;;;;;14.80;1.00;;;;;;5080899;28;19908;-85
2024/02/20 11:18:33;;;;;;;;;;;14.80;1.00;;;;;;5077982;28;20275;-83
2024/02/20 11:20:59;;;;;;;;;;;14.70;1.00;;;;;;5085858;28;19922;-85
2024/02/20 11:23:27;;;;;;;;;;;14.60;1.00;;;;;;5084103;28;20393;-84
2024/02/20 11:26:03;;;;;;;;;;;14.60;1.00;;;;;;5081272;28;20016;-84
2024/02/20 11:28:32;;;;;;;;;;;14.60;1.00;;;;;;5091091;28;19908;-85
2024/02/20 11:31:02;;;;;;;;;;;14.60;1.00;;;;;;5089025;28;19920;-84
2024/02/20 11:33:28;;;;;;;;;;;14.50;1.00;;;;;;5089109;28;19951;-85
2024/02/20 11:35:54;;;;;;;;;;;14.30;1.00;;;;;;5078373;28;19912;-84
2024/02/20 11:38:20;;;;;;;;;;;14.20;1.00;;;;;;5089766;28;19924;-85
2024/02/20 11:40:45;;;;;;;;;;;14.10;1.00;;;;;;5083489;28;20408;-84
2024/02/20 11:43:11;;;;;;;;;;;14.10;1.00;;;;;;5086094;28;19948;-85
2024/02/20 11:45:36;;;;;;;;;;;14.00;1.00;;;;;;5085534;28;19916;-84
2024/02/20 11:48:02;;;;;;;;;;;14.00;1.00;;;;;;5092338;28;19966;-85
2024/02/20 11:50:28;;;;;;;;;;;14.00;1.00;;;;;;5086510;28;20412;-85
2024/02/20 11:53:13;;;;;;;;;;;14.00;1.00;;;;;;5085779;28;19947;-84
2024/02/20 11:55:39;;;;;;;;;;;14.10;1.00;;;;;;5084077;28;19922;-83
2024/02/20 11:58:05;;;;;;;;;;;14.10;1.00;;;;;;5088978;28;19913;-85
2024/02/20 12:00:37;;;;;;;;;;;14.10;1.00;;;;;;5083077;28;19970;-85
2024/02/20 12:03:04;;;;;;;;;;;14.10;1.00;;;;;;5088020;28;19994;-85
2024/02/20 12:05:36;;;;;;;;;;;14.10;1.00;;;;;;5093315;28;19934;-85
2024/02/20 12:08:09;;;;;;;;;;;14.10;1.00;;;;;;5092579;28;19916;-85
2024/02/20 12:10:36;;;;;;;;;;;14.10;1.00;;;;;;5088813;28;19973;-84
2024/02/20 12:13:11;;;;;;;;;;;14.30;1.00;;;;;;5091930;28;19999;-85
2024/02/20 12:15:37;;;;;;;;;;;14.40;1.00;;;;;;5092311;28;20011;-84
2024/02/20 12:18:02;;;;;;;;;;;14.50;1.00;;;;;;5088639;28;20399;-84
2024/02/20 12:20:28;;;;;;;;;;;14.70;1.00;;;;;;5091351;28;20297;-84
2024/02/20 12:22:57;;;;;;;;;;;14.90;1.00;;;;;;5076292;28;19958;-84
2024/02/20 12:25:23;;;;;;;;;;;15.00;1.00;;;;;;5086737;28;19912;-85
2024/02/20 12:27:48;;;;;;;;;;;15.20;1.00;;;;;;5086571;28;19912;-85
2024/02/20 12:30:15;;;;;;;;;;;15.40;1.00;;;;;;5096811;28;19944;-85
2024/02/20 12:32:41;;;;;;;;;;;15.60;1.00;;;;;;5092766;28;19912;-84
2024/02/20 12:35:06;;;;;;;;;;;15.80;1.00;;;;;;5093885;28;19909;-85
2024/02/20 12:37:32;;;;;;;;;;;16.00;1.00;;;;;;5092988;28;19920;-84
2024/02/20 12:39:58;;;;;;;;;;;16.30;1.00;;;;;;5082060;28;19916;-84
2024/02/20 12:42:23;;;;;;;;;;;16.70;1.00;;;;;;5090133;28;19908;-84
2024/02/20 12:44:51;;;;;;;;;;;17.00;1.00;;;;;;5087001;28;19912;-85
2024/02/20 12:47:16;;;;;;;;;;;17.50;1.00;;;;;;5093513;28;19915;-85
2024/02/20 12:49:42;;;;;;;;;;;18.20;99.90;;;;;;5093524;28;19908;-85
2024/02/20 12:52:08;;;;;;;;;;;18.90;99.90;;;;;;5090323;28;19912;-85
2024/02/20 12:54:34;;;;;;;;;;;19.50;99.90;;;;;;5093658;28;19954;-85
2024/02/20 12:56:59;;;;;;;;;;;19.90;99.90;;;;;;5091383;28;20403;-85
2024/02/20 12:59:26;;;;;;;;;;;20.20;99.90;;;;;;5091964;28;20358;-86
2024/02/20 13:01:52;;;;;;;;;;;20.50;99.90;;;;;;5092354;28;19908;-85
2024/02/20 13:04:17;;;;;;;;;;;20.60;99.90;;;;;;5090025;28;19919;-85
2024/02/20 13:06:43;;;;;;;;;;;20.70;99.90;;;;;;5078579;28;19920;-85
2024/02/20 13:09:10;;;;;;;;;;;20.40;99.90;;;;;;5082681;28;19922;-85
2024/02/20 13:11:36;;;;;;;;;;;19.70;99.90;;;;;;5073750;28;19912;-85
2024/02/20 13:14:01;;;;;;;;;;;19.10;99.90;;;;;;5078770;28;19954;-85
2024/02/20 13:16:27;;;;;;;;;;;18.80;99.90;;;;;;5071425;28;19919;-85
2024/02/20 13:18:52;;;;;;;;;;;18.60;99.90;;;;;;5075873;28;19962;-86
2024/02/20 13:21:18;;;;;;;;;;;18.40;99.90;;;;;;5072707;28;19963;-85
2024/02/20 13:23:43;;;;;;;;;;;18.10;99.90;;;;;;5092787;28;19912;-84
2024/02/20 13:26:09;;;;;;;;;;;17.80;99.90;;;;;;5073032;28;19919;-86
2024/02/20 13:28:35;;;;;;;;;;;17.60;99.90;;;;;;5077267;28;19920;-85
2024/02/20 13:31:00;;;;;;;;;;;17.50;99.90;;;;;;5074956;28;19995;-85
2024/02/20 13:33:26;;;;;;;;;;;17.40;99.90;;;;;;5074234;28;20020;-84
2024/02/20 13:35:51;;;;;;;;;;;17.10;99.90;;;;;;5072011;28;19916;-85
2024/02/20 13:38:17;;;;;;;;;;;17.00;99.90;;;;;;5072670;28;20334;-85
2024/02/20 13:40:45;;;;;;;;;;;17.30;99.90;;;;;;5079021;28;20385;-85
2024/02/20 13:43:10;;;;;;;;;;;17.20;99.90;;;;;;5075361;28;19987;-84
2024/02/20 13:45:43;;;;;;;;;;;17.10;99.90;;;;;;5077696;28;19956;-84
2024/02/20 13:48:17;;;;;;;;;;;16.90;99.90;;;;;;5075257;28;19912;-85
2024/02/20 13:50:43;;;;;;;;;;;16.70;99.90;;;;;;5071356;28;19912;-84
2024/02/20 13:53:11;;;;;;;;;;;16.50;99.90;;;;;;5074921;28;19927;-84
2024/02/20 13:55:38;;;;;;;;;;;16.10;99.90;;;;;;5068943;28;19916;-83
2024/02/20 13:58:04;;;;;;;;;;;15.60;99.90;;;;;;5077925;28;19920;-85
2024/02/20 14:00:29;;;;;;;;;;;15.30;99.90;;;;;;5073628;28;19921;-84
2024/02/20 14:02:55;;;;;;;;;;;15.00;99.90;;;;;;5075677;28;19912;-84
2024/02/20 14:05:20;;;;;;;;;;;14.80;99.90;;;;;;5072265;28;19920;-85
2024/02/20 14:07:46;;;;;;;;;;;14.70;99.90;;;;;;5078308;28;19919;-84
2024/02/20 14:10:11;;;;;;;;;;;14.60;99.90;;;;;;5078126;28;19919;-84
2024/02/20 14:12:37;;;;;;;;;;;14.60;99.90;;;;;;5077943;28;20251;-85
2024/02/20 14:15:02;;;;;;;;;;;14.60;99.90;;;;;;5072895;28;19922;-85
2024/02/20 14:17:28;;;;;;;;;;;14.60;99.90;;;;;;5073458;28;19920;-85
2024/02/20 14:19:54;;;;;;;;;;;14.50;99.90;;;;;;5076467;28;19917;-84
2024/02/20 14:22:19;;;;;;;;;;;14.40;99.90;;;;;;5079408;28;19916;-84